createdAt,value
2018-03-25T18:10:23.054Z,8.33
2018-03-25T18:12:52.524Z,7.47
2018-03-25T18:15:20.855Z,11.20
2018-03-25T18:17:49.103Z,7.20
2018-03-25T18:20:17.352Z,8.50
2018-03-25T18:22:46.376Z,6.17
2018-03-25T18:25:15.393Z,14.87
2018-03-25T18:27:43.638Z,9.48
2018-03-25T18:30:12.652Z,6.83
2018-03-25T18:32:40.919Z,8.93
2018-03-25T18:35:09.924Z,6.05
2018-03-25T18:37:38.936Z,6.60
2018-03-25T18:40:07.175Z,6.00
2018-03-25T18:42:35.437Z,6.32
2018-03-25T18:45:03.675Z,6.53
2018-03-25T18:47:32.877Z,7.18
2018-03-25T18:50:01.113Z,7.00
2018-03-25T18:52:29.367Z,6.87
2018-03-25T18:54:57.614Z,6.62
2018-03-25T18:57:25.849Z,7.93
2018-03-25T18:59:54.101Z,7.43
2018-03-25T19:02:22.340Z,12.77
2018-03-25T19:04:50.588Z,12.15
2018-03-25T19:07:18.841Z,14.70
2018-03-25T19:09:47.101Z,11.40
2018-03-25T19:12:15.344Z,11.60
2018-03-25T19:14:44.364Z,10.50
2018-03-25T19:17:12.616Z,9.50
2018-03-25T19:19:40.868Z,10.77
2018-03-25T19:22:09.120Z,9.07
2018-03-25T19:24:37.360Z,9.07
2018-03-25T19:27:06.380Z,10.20
2018-03-25T19:29:34.629Z,8.52
2018-03-25T19:32:02.912Z,9.80
2018-03-25T19:34:31.116Z,15.17
2018-03-25T19:36:59.372Z,17.70
2018-03-25T19:39:27.616Z,14.60
2018-03-25T19:41:55.879Z,20.27
2018-03-25T19:44:24.131Z,14.10
2018-03-25T19:46:53.142Z,11.73
2018-03-25T19:49:21.400Z,14.32
2018-03-25T19:51:50.422Z,13.50
2018-03-25T19:54:18.670Z,11.87
2018-03-25T19:56:46.917Z,12.50
2018-03-25T19:59:15.161Z,12.33
2018-03-25T20:01:43.404Z,13.80
2018-03-25T20:04:11.673Z,13.43
2018-03-25T20:06:39.912Z,13.40
2018-03-25T20:09:08.158Z,10.37
2018-03-25T20:11:37.175Z,21.90
2018-03-25T20:14:05.430Z,8.70
2018-03-25T20:16:33.675Z,10.47
2018-03-25T20:19:01.935Z,10.47
2018-03-25T20:21:30.184Z,10.27
2018-03-25T20:23:59.214Z,8.30
2018-03-25T20:26:27.468Z,13.03
2018-03-25T20:28:56.588Z,12.57
2018-03-25T20:31:24.843Z,13.77
2018-03-25T20:33:53.973Z,10.60
2018-03-25T20:36:22.240Z,11.50
2018-03-25T20:38:50.482Z,12.10
2018-03-25T20:41:18.723Z,12.97
2018-03-25T20:43:46.980Z,13.00
2018-03-25T20:46:15.220Z,10.83
2018-03-25T20:48:43.481Z,12.23
2018-03-25T20:51:11.725Z,12.07
2018-03-25T20:53:39.962Z,13.27
2018-03-25T20:56:08.216Z,12.23
2018-03-25T20:58:36.491Z,11.77
2018-03-25T21:01:04.725Z,12.23
2018-03-25T21:03:33.741Z,14.57
2018-03-25T21:06:01.992Z,16.07
2018-03-25T21:08:31.024Z,15.47
2018-03-25T21:10:59.486Z,13.40
2018-03-25T21:13:28.492Z,11.73
2018-03-25T21:15:56.751Z,10.77
2018-03-25T21:18:25.761Z,14.50
2018-03-25T21:20:54.780Z,13.23
2018-03-25T21:23:23.037Z,12.40
2018-03-25T21:25:52.069Z,11.37
2018-03-25T21:28:20.568Z,11.83
2018-03-25T21:30:48.824Z,11.26
2018-03-25T21:33:17.064Z,14.87
2018-03-25T21:35:46.081Z,18.73
2018-03-25T21:38:14.336Z,15.97
2018-03-25T21:40:42.600Z,16.60
2018-03-25T21:43:10.848Z,15.52
2018-03-25T21:45:39.103Z,18.40
2018-03-25T21:48:07.464Z,16.90
2018-03-25T21:50:36.476Z,15.90
2018-03-25T21:53:05.491Z,14.10
2018-03-25T21:55:33.750Z,16.00
2018-03-25T21:58:02.774Z,14.73
2018-03-25T22:00:31.022Z,19.20
2018-03-25T22:03:05.864Z,15.20
2018-03-25T22:05:34.871Z,15.10
2018-03-25T22:08:03.140Z,14.67
2018-03-25T22:10:31.396Z,16.33
2018-03-25T22:12:59.648Z,14.70
2018-03-25T22:15:27.921Z,15.43
2018-03-25T22:17:56.165Z,19.23
2018-03-25T22:20:25.184Z,14.87
2018-03-25T22:22:53.433Z,15.53
2018-03-25T22:25:22.455Z,16.50
2018-03-25T22:27:50.714Z,18.37
2018-03-25T22:30:19.729Z,17.23
2018-03-25T22:32:48.000Z,17.40
2018-03-25T22:35:16.270Z,19.50
2018-03-25T22:37:45.281Z,18.77
2018-03-25T22:40:13.543Z,22.63
2018-03-25T22:42:42.552Z,20.37
2018-03-25T22:45:11.569Z,18.62
2018-03-25T22:47:39.834Z,22.30
2018-03-25T22:50:08.846Z,20.17
2018-03-25T22:52:37.101Z,18.77
2018-03-25T22:55:06.118Z,19.73
2018-03-25T22:57:34.373Z,22.13
2018-03-25T23:00:03.397Z,19.27
2018-03-25T23:02:31.668Z,17.65
2018-03-25T23:05:00.990Z,18.12
2018-03-25T23:07:29.229Z,20.40
2018-03-25T23:09:57.488Z,16.00
2018-03-25T23:12:25.983Z,18.87
2018-03-25T23:14:54.220Z,15.53
2018-03-25T23:17:22.461Z,15.40
2018-03-25T23:19:51.484Z,13.50
2018-03-25T23:22:19.751Z,16.07
2018-03-25T23:24:48.773Z,14.90
2018-03-25T23:27:17.017Z,16.98
2018-03-25T23:29:46.041Z,14.83
2018-03-25T23:32:14.308Z,15.03
2018-03-25T23:34:43.319Z,16.10
2018-03-25T23:37:11.582Z,18.93
2018-03-25T23:39:40.591Z,18.57
2018-03-25T23:42:08.861Z,20.70
2018-03-25T23:44:37.885Z,18.00
2018-03-25T23:47:06.115Z,16.60
2018-03-25T23:49:34.391Z,16.50
2018-03-25T23:52:02.644Z,12.83
2018-03-25T23:54:30.882Z,17.70
2018-03-25T23:56:59.908Z,18.57
2018-03-25T23:59:28.164Z,16.08
